Time;durP1;ratioP1;P1;durP2;ratioP2;P2;SDS_P1;SDS_P2;PMS_P1;PMS_P2;Temp;Humidity;BMP_temperature;BMP_pressure;BME280_temperature;BME280_humidity;BME280_pressure;Samples;Min_cycle;Max_cycle;Signal;HPM_P1;HPM_P2
2023/04/13 00:00:35;;;;;;;25.63;19.23;;;10.30;94.50;;;;;;4972681;28;20194;-75
2023/04/13 00:03:04;;;;;;;27.10;17.87;;;10.30;94.00;;;;;;4972698;28;20641;-69
2023/04/13 00:05:34;;;;;;;22.93;17.27;;;10.40;94.20;;;;;;4972446;28;20287;-70
2023/04/13 00:08:03;;;;;;;25.43;17.33;;;10.50;94.10;;;;;;4972390;28;20235;-75
2023/04/13 00:10:34;;;;;;;23.23;15.23;;;10.50;93.10;;;;;;4975058;28;20680;-73
2023/04/13 00:13:04;;;;;;;22.63;16.30;;;10.50;93.50;;;;;;4976136;28;20222;-75
2023/04/13 00:15:35;;;;;;;21.37;15.03;;;10.50;93.50;;;;;;4976096;28;20196;-73
2023/04/13 00:18:05;;;;;;;20.07;14.70;;;10.50;93.20;;;;;;4976051;28;20207;-74
2023/04/13 00:20:34;;;;;;;22.17;15.73;;;10.40;93.10;;;;;;4976065;28;20212;-76
2023/04/13 00:23:02;;;;;;;21.73;16.20;;;10.40;93.60;;;;;;4976001;28;20222;-76
2023/04/13 00:25:31;;;;;;;22.10;16.17;;;10.30;93.30;;;;;;4975883;28;20226;-75
2023/04/13 00:28:01;;;;;;;21.47;16.73;;;10.10;94.10;;;;;;4975815;28;20761;-75
2023/04/13 00:30:30;;;;;;;24.63;16.63;;;10.20;94.40;;;;;;4975965;28;20204;-69
2023/04/13 00:33:02;;;;;;;24.10;16.63;;;10.10;94.40;;;;;;4975700;28;20621;-68
2023/04/13 00:35:30;;;;;;;23.57;17.00;;;9.90;95.40;;;;;;4975576;28;20733;-70
2023/04/13 00:37:59;;;;;;;22.50;16.13;;;10.00;95.60;;;;;;4958258;28;20199;-66
2023/04/13 00:40:28;;;;;;;22.23;15.50;;;10.10;95.60;;;;;;4975641;28;20654;-69
2023/04/13 00:42:59;;;;;;;25.20;17.43;;;10.10;94.80;;;;;;4975560;28;20285;-74
2023/04/13 00:45:28;;;;;;;21.77;17.30;;;10.00;95.20;;;;;;4975488;28;20685;-74
2023/04/13 00:47:58;;;;;;;25.67;17.37;;;9.90;96.30;;;;;;4974171;28;20233;-72
2023/04/13 00:50:29;;;;;;;25.93;17.37;;;9.80;96.40;;;;;;4974097;28;20239;-67
2023/04/13 00:52:58;;;;;;;27.80;19.23;;;9.90;96.90;;;;;;4975318;28;20204;-75
2023/04/13 00:55:26;;;;;;;24.93;16.37;;;10.00;96.60;;;;;;4973781;28;20301;-67
2023/04/13 00:57:56;;;;;;;22.70;17.43;;;10.10;96.50;;;;;;4975337;28;20202;-77
2023/04/13 01:00:25;;;;;;;25.10;17.97;;;10.20;95.80;;;;;;4975133;28;20200;-66
2023/04/13 01:02:55;;;;;;;25.97;17.57;;;10.20;95.50;;;;;;4975192;28;20563;-75
2023/04/13 01:05:25;;;;;;;25.43;17.77;;;10.20;95.20;;;;;;4975034;28;20229;-76
2023/04/13 01:08:08;;;;;;;29.70;17.70;;;10.20;95.00;;;;;;4973494;28;20244;-76
2023/04/13 01:10:43;;;;;;;26.27;19.10;;;10.10;95.20;;;;;;4973241;28;20211;-68
2023/04/13 01:13:20;;;;;;;27.20;18.13;;;10.20;95.50;;;;;;4973755;28;20209;-72
2023/04/13 01:16:01;;;;;;;23.77;17.73;;;10.30;95.30;;;;;;4973658;28;20210;-66
2023/04/13 01:18:36;;;;;;;25.87;16.70;;;10.30;94.50;;;;;;4973656;28;20686;-66
2023/04/13 01:21:10;;;;;;;23.13;17.30;;;10.00;95.00;;;;;;4956982;28;20203;-70
2023/04/13 01:23:51;;;;;;;21.00;15.87;;;9.80;95.80;;;;;;4973474;28;20208;-66
2023/04/13 01:26:21;;;;;;;24.13;16.27;;;9.80;95.70;;;;;;4974679;28;20268;-66
2023/04/13 01:28:52;;;;;;;20.50;15.50;;;9.60;96.30;;;;;;4973389;28;20235;-67
2023/04/13 01:31:21;;;;;;;23.87;16.40;;;9.70;96.80;;;;;;4973362;28;20257;-73
2023/04/13 01:33:50;;;;;;;22.60;17.23;;;9.80;97.10;;;;;;4973382;28;20203;-74
2023/04/13 01:36:19;;;;;;;24.63;17.70;;;10.00;96.50;;;;;;4957105;28;20215;-74
2023/04/13 01:38:49;;;;;;;27.60;17.20;;;10.00;95.70;;;;;;4957076;28;20573;-68
2023/04/13 01:41:18;;;;;;;27.57;17.30;;;10.00;95.00;;;;;;4973223;28;20204;-72
2023/04/13 01:43:46;;;;;;;25.40;17.17;;;9.90;95.90;;;;;;4974429;28;20193;-75
2023/04/13 01:46:22;;;;;;;27.00;16.93;;;10.00;96.10;;;;;;4974385;28;20232;-75
2023/04/13 01:49:22;;;;;;;23.43;17.07;;;10.10;95.80;;;;;;4953276;28;20571;-67
2023/04/13 01:52:19;;;;;;;23.80;17.17;;;10.00;96.10;;;;;;4949431;28;20266;-76
2023/04/13 01:54:51;;;;;;;26.43;17.03;;;10.10;95.90;;;;;;4972911;28;20226;-74
2023/04/13 01:57:21;;;;;;;24.73;17.10;;;10.10;95.60;;;;;;4972731;28;20213;-66
2023/04/13 01:59:50;;;;;;;25.17;16.40;;;10.10;95.50;;;;;;4956703;28;20207;-70
2023/04/13 02:02:22;;;;;;;24.07;16.90;;;10.00;95.60;;;;;;4956642;28;20219;-66
2023/04/13 02:04:50;;;;;;;23.67;16.93;;;10.10;95.90;;;;;;4973946;28;20207;-73
2023/04/13 02:07:19;;;;;;;20.80;15.30;;;10.00;94.50;;;;;;4972381;28;20329;-65
2023/04/13 02:09:49;;;;;;;21.73;15.23;;;9.70;95.70;;;;;;4956556;28;20215;-72
2023/04/13 02:12:17;;;;;;;19.37;14.37;;;9.50;97.00;;;;;;4972617;28;20234;-74
2023/04/13 02:14:46;;;;;;;21.97;14.97;;;9.50;97.40;;;;;;4973838;28;20197;-72
2023/04/13 02:17:14;;;;;;;21.37;15.47;;;9.60;97.80;;;;;;4973924;28;20203;-67
2023/04/13 02:19:44;;;;;;;23.13;16.40;;;9.80;97.20;;;;;;4956379;28;20202;-74
2023/04/13 02:22:15;;;;;;;23.30;15.47;;;9.80;96.60;;;;;;4973652;28;20204;-74
2023/04/13 02:24:43;;;;;;;24.93;16.97;;;9.90;96.20;;;;;;4973615;28;20199;-75
2023/04/13 02:27:12;;;;;;;24.60;17.23;;;9.90;95.80;;;;;;4956283;28;20702;-67
2023/04/13 02:29:40;;;;;;;23.73;15.53;;;9.90;95.50;;;;;;4973782;28;20726;-74
2023/04/13 02:32:08;;;;;;;21.50;15.20;;;9.80;95.20;;;;;;4956052;28;20210;-65
2023/04/13 02:34:37;;;;;;;25.57;16.20;;;9.60;96.40;;;;;;4955567;28;20210;-66
2023/04/13 02:37:08;;;;;;;22.60;15.23;;;9.50;97.80;;;;;;4955967;28;20212;-75
2023/04/13 02:39:37;;;;;;;21.93;16.20;;;9.40;97.80;;;;;;4956203;28;20199;-66
2023/04/13 02:42:09;;;;;;;24.80;16.47;;;9.50;98.10;;;;;;4972182;28;20230;-70
2023/04/13 02:44:37;;;;;;;23.63;17.00;;;9.60;98.00;;;;;;4973305;28;20256;-66
2023/04/13 02:47:06;;;;;;;22.33;15.87;;;9.80;97.50;;;;;;4972013;28;20713;-75
2023/04/13 02:49:36;;;;;;;22.73;16.57;;;9.70;97.10;;;;;;4972203;28;20211;-69
2023/04/13 02:52:32;;;;;;;22.47;16.00;;;9.60;97.20;;;;;;4971121;28;20213;-75
2023/04/13 02:55:05;;;;;;;19.57;15.83;;;9.60;98.00;;;;;;4956038;28;20218;-75
2023/04/13 02:57:45;;;;;;;23.70;16.30;;;9.70;97.60;;;;;;4955755;28;20681;-76
2023/04/13 03:00:15;;;;;;;19.73;15.47;;;9.80;97.10;;;;;;4955608;28;20210;-70
2023/04/13 03:02:51;;;;;;;29.47;14.97;;;9.80;96.60;;;;;;4971803;28;20213;-66
2023/04/13 03:05:21;;;;;;;21.90;15.23;;;9.80;94.90;;;;;;4971694;28;20203;-66
2023/04/13 03:07:51;;;;;;;21.33;14.67;;;9.40;96.10;;;;;;4972878;28;20223;-66
2023/04/13 03:10:20;;;;;;;21.07;13.97;;;9.20;97.40;;;;;;4955595;28;20733;-72
2023/04/13 03:12:49;;;;;;;20.13;14.30;;;9.30;97.80;;;;;;4971609;28;20202;-73
2023/04/13 03:15:18;;;;;;;28.37;14.63;;;9.40;96.90;;;;;;4972843;28;20277;-69
2023/04/13 03:17:47;;;;;;;21.03;14.57;;;9.30;96.90;;;;;;4955393;28;20229;-77
2023/04/13 03:20:22;;;;;;;20.03;14.77;;;9.40;97.70;;;;;;4955602;28;20218;-78
2023/04/13 03:23:00;;;;;;;22.93;15.97;;;9.50;97.30;;;;;;4972819;28;20201;-69
2023/04/13 03:25:32;;;;;;;19.10;13.67;;;9.60;97.10;;;;;;4971540;28;20216;-73
2023/04/13 03:28:03;;;;;;;20.00;13.50;;;9.50;95.00;;;;;;4972014;28;20262;-68
2023/04/13 03:30:37;;;;;;;17.97;14.20;;;9.30;96.60;;;;;;4955690;28;20209;-73
2023/04/13 03:33:05;;;;;;;16.27;12.30;;;9.40;97.20;;;;;;4971542;28;20297;-74
2023/04/13 03:35:37;;;;;;;17.63;13.57;;;9.40;97.10;;;;;;4955619;28;20202;-76
2023/04/13 03:38:11;;;;;;;19.33;13.00;;;9.10;98.50;;;;;;4955240;28;20218;-66
2023/04/13 03:40:43;;;;;;;19.10;13.60;;;9.10;98.90;;;;;;4955363;28;20258;-71
2023/04/13 03:43:12;;;;;;;19.83;13.83;;;9.20;98.80;;;;;;4955356;28;20669;-66
2023/04/13 03:45:45;;;;;;;18.50;13.70;;;9.20;97.90;;;;;;4974584;28;20194;-66
2023/04/13 03:48:16;;;;;;;17.87;13.43;;;9.30;98.00;;;;;;4959318;28;20289;-70
2023/04/13 03:50:46;;;;;;;16.83;12.33;;;9.40;98.00;;;;;;4975161;28;20206;-71
2023/04/13 03:53:20;;;;;;;17.87;12.47;;;9.50;97.60;;;;;;4974999;28;20217;-72
2023/04/13 03:55:50;;;;;;;19.03;14.20;;;9.60;97.30;;;;;;4958898;28;20286;-71
2023/04/13 03:58:20;;;;;;;24.23;13.93;;;9.60;96.80;;;;;;4976517;28;20275;-75
2023/04/13 04:00:50;;;;;;;21.83;14.60;;;9.60;96.50;;;;;;4974964;28;20223;-72
2023/04/13 04:03:25;;;;;;;23.30;16.37;;;9.70;96.20;;;;;;4958794;28;20236;-72
2023/04/13 04:06:01;;;;;;;24.70;16.67;;;9.70;96.10;;;;;;4974589;28;20241;-66
2023/04/13 04:08:32;;;;;;;21.93;14.77;;;9.70;95.00;;;;;;4958525;28;20213;-69
2023/04/13 04:11:05;;;;;;;24.37;16.03;;;9.60;95.00;;;;;;4974927;28;20201;-72
2023/04/13 04:13:34;;;;;;;25.10;17.67;;;9.60;95.80;;;;;;4974870;28;20214;-65
2023/04/13 04:16:10;;;;;;;32.13;21.63;;;9.60;95.30;;;;;;4974633;28;20665;-74
2023/04/13 04:18:44;;;;;;;32.03;18.53;;;9.60;95.40;;;;;;4974714;28;20305;-77
2023/04/13 04:21:15;;;;;;;23.93;16.43;;;9.60;94.30;;;;;;4974614;28;20216;-77
2023/04/13 04:23:46;;;;;;;25.57;16.80;;;9.30;95.00;;;;;;4958371;28;20626;-68
2023/04/13 04:26:16;;;;;;;23.93;16.00;;;9.10;96.10;;;;;;4974443;28;20317;-66
2023/04/13 04:29:00;;;;;;;24.87;17.30;;;8.80;97.30;;;;;;4974514;28;20301;-77
2023/04/13 04:31:33;;;;;;;26.00;17.13;;;8.80;98.80;;;;;;4974443;28;20736;-77
2023/04/13 04:34:09;;;;;;;23.33;16.60;;;9.10;99.10;;;;;;4974635;28;20272;-68
2023/04/13 04:36:44;;;;;;;23.33;16.50;;;9.30;98.90;;;;;;4974132;28;20668;-77
2023/04/13 04:39:20;;;;;;;19.97;15.37;;;9.40;98.20;;;;;;4975556;28;20205;-77
2023/04/13 04:42:01;;;;;;;24.37;16.47;;;9.50;98.10;;;;;;4974179;28;20202;-77
2023/04/13 04:44:31;;;;;;;25.33;16.23;;;9.60;98.30;;;;;;4974252;28;20211;-76
2023/04/13 04:47:05;;;;;;;25.87;17.03;;;9.70;98.00;;;;;;4958083;28;20759;-68
2023/04/13 04:49:41;;;;;;;26.17;18.00;;;9.80;97.80;;;;;;4974030;28;20256;-76
2023/04/13 04:52:11;;;;;;;28.60;16.27;;;9.80;96.90;;;;;;4974025;28;20202;-71
2023/04/13 04:54:42;;;;;;;29.27;17.70;;;9.90;97.30;;;;;;4973781;28;20210;-75
2023/04/13 04:57:13;;;;;;;22.10;16.93;;;9.90;97.40;;;;;;4956862;28;20240;-66
2023/04/13 04:59:42;;;;;;;28.50;16.80;;;10.00;97.60;;;;;;4975236;28;20203;-77
2023/04/13 05:02:10;;;;;;;27.73;17.70;;;10.10;97.80;;;;;;4973352;28;20229;-67
2023/04/13 05:04:40;;;;;;;20.97;15.77;;;10.20;97.70;;;;;;4973959;28;20664;-76
2023/04/13 05:07:10;;;;;;;31.43;18.10;;;10.20;97.70;;;;;;4973411;28;20239;-79
2023/04/13 05:09:42;;;;;;;31.90;20.60;;;10.30;97.50;;;;;;4973879;28;20239;-75
2023/04/13 05:12:11;;;;;;;40.40;24.03;;;10.30;97.20;;;;;;4975015;28;20664;-83
2023/04/13 05:14:43;;;;;;;35.97;22.87;;;10.30;97.10;;;;;;4973665;28;20205;-66
2023/04/13 05:17:17;;;;;;;48.77;24.57;;;10.30;97.40;;;;;;4973526;28;20309;-66
2023/04/13 05:19:45;;;;;;;42.47;25.60;;;10.40;97.30;;;;;;4973475;28;20206;-67
2023/04/13 05:22:27;;;;;;;44.90;28.23;;;10.40;97.60;;;;;;4956985;28;20690;-65
2023/04/13 05:25:03;;;;;;;40.63;26.33;;;10.40;96.80;;;;;;4957354;28;20663;-69
2023/04/13 05:27:32;;;;;;;39.47;25.10;;;10.30;97.40;;;;;;4974478;28;20690;-66
2023/04/13 05:30:00;;;;;;;39.30;23.73;;;10.30;97.60;;;;;;4957006;28;20206;-69
2023/04/13 05:32:32;;;;;;;38.50;23.67;;;10.20;98.30;;;;;;4957322;28;20635;-72
2023/04/13 05:35:03;;;;;;;43.57;25.47;;;10.20;98.60;;;;;;4957188;28;20250;-76
2023/04/13 05:37:31;;;;;;;46.50;26.83;;;10.20;98.80;;;;;;4957062;28;20209;-76
2023/04/13 05:40:07;;;;;;;45.27;27.70;;;10.30;98.90;;;;;;4973166;28;20211;-75
2023/04/13 05:42:37;;;;;;;45.07;26.93;;;10.30;98.80;;;;;;4956987;28;20210;-71
2023/04/13 05:45:09;;;;;;;47.10;28.67;;;10.30;98.50;;;;;;4956774;28;20276;-69
2023/04/13 05:47:48;;;;;;;52.37;28.70;;;10.20;99.00;;;;;;4956967;28;20258;-75
2023/04/13 05:50:17;;;;;;;57.37;30.80;;;10.20;99.50;;;;;;4956853;28;20238;-74
2023/04/13 05:52:46;;;;;;;57.73;30.47;;;10.20;99.70;;;;;;4972737;28;20210;-73
2023/04/13 05:55:18;;;;;;;51.17;31.47;;;10.30;99.90;;;;;;4972750;28;20255;-72
2023/04/13 05:57:54;;;;;;;53.80;31.03;;;10.40;99.90;;;;;;4956557;28;20202;-75
2023/04/13 06:00:23;;;;;;;52.40;32.30;;;10.40;99.90;;;;;;4956664;28;20210;-73
2023/04/13 06:03:01;;;;;;;59.60;33.00;;;10.40;99.90;;;;;;4972770;28;20236;-69
2023/04/13 06:05:31;;;;;;;63.33;33.30;;;10.50;99.90;;;;;;4972702;28;20233;-73
2023/04/13 06:08:01;;;;;;;56.40;33.53;;;10.50;99.90;;;;;;4973552;28;20230;-67
2023/04/13 06:10:31;;;;;;;49.43;31.10;;;10.70;99.90;;;;;;4973952;28;20203;-66
2023/04/13 06:12:59;;;;;;;52.40;31.20;;;10.80;99.90;;;;;;4973982;28;20194;-69
2023/04/13 06:15:27;;;;;;;56.00;31.43;;;10.90;99.90;;;;;;4972462;28;20214;-73
2023/04/13 06:17:56;;;;;;;55.07;28.90;;;11.00;99.90;;;;;;4973741;28;20216;-73
2023/04/13 06:20:24;;;;;;;50.63;31.00;;;11.10;99.90;;;;;;4973654;28;20277;-73
2023/04/13 06:22:53;;;;;;;35.03;22.60;;;11.20;99.90;;;;;;4971657;28;20199;-69
2023/04/13 06:25:22;;;;;;;36.10;24.77;;;11.30;99.90;;;;;;4961515;28;20215;-69
2023/04/13 06:27:52;;;;;;;37.70;24.83;;;11.30;99.90;;;;;;4960540;28;20630;-68
2023/04/13 06:30:22;;;;;;;37.77;25.83;;;11.40;99.90;;;;;;4956774;28;20234;-66
2023/04/13 06:32:54;;;;;;;40.00;25.70;;;11.50;99.90;;;;;;4956401;28;20208;-71
2023/04/13 06:35:25;;;;;;;40.20;25.07;;;11.70;99.90;;;;;;4956605;28;20657;-66
2023/04/13 06:37:54;;;;;;;36.90;23.47;;;11.80;99.90;;;;;;4973096;28;20747;-67
2023/04/13 06:40:32;;;;;;;34.30;24.37;;;11.90;99.90;;;;;;4956473;28;20627;-66
2023/04/13 06:43:06;;;;;;;33.90;22.77;;;12.00;99.90;;;;;;4972291;28;20212;-66
2023/04/13 06:45:58;;;;;;;32.73;23.60;;;12.10;99.90;;;;;;4956626;28;20203;-67
2023/04/13 06:48:29;;;;;;;30.90;23.23;;;12.20;99.30;;;;;;4956273;28;20231;-66
2023/04/13 06:51:00;;;;;;;35.00;23.37;;;12.30;99.90;;;;;;4956224;28;20199;-66
2023/04/13 06:53:31;;;;;;;26.43;17.40;;;12.50;99.90;;;;;;4955579;28;20736;-68
2023/04/13 06:56:00;;;;;;;27.23;16.80;;;12.40;93.50;;;;;;4973689;28;20222;-66
2023/04/13 06:58:31;;;;;;;18.23;13.70;;;12.50;92.10;;;;;;4955781;28;20673;-67
2023/04/13 07:01:00;;;;;;;16.30;13.53;;;12.50;91.80;;;;;;4973608;28;20206;-69
2023/04/13 07:03:31;;;;;;;32.57;20.87;;;12.50;90.60;;;;;;4956394;28;20214;-67
2023/04/13 07:06:00;;;;;;;24.30;16.77;;;12.60;91.80;;;;;;4973361;28;20274;-72
2023/04/13 07:08:28;;;;;;;22.13;13.47;;;12.80;93.10;;;;;;4972788;28;20239;-66
2023/04/13 07:10:59;;;;;;;15.93;11.17;;;12.90;88.70;;;;;;4956009;28;20250;-72
2023/04/13 07:13:38;;;;;;;13.93;9.87;;;12.90;82.90;;;;;;4955888;28;20286;-74
2023/04/13 07:16:10;;;;;;;16.57;11.87;;;12.90;75.70;;;;;;4955909;28;20633;-72
2023/04/13 07:18:43;;;;;;;13.13;9.77;;;13.00;86.50;;;;;;4955280;28;20262;-72
2023/04/13 07:21:11;;;;;;;12.97;10.70;;;13.20;80.10;;;;;;4972669;28;20678;-68
2023/04/13 07:23:55;;;;;;;9.87;8.77;;;13.20;70.40;;;;;;4955721;28;20228;-72
2023/04/13 07:26:25;;;;;;;11.63;8.90;;;13.10;66.90;;;;;;4972950;28;20204;-68
2023/04/13 07:28:55;;;;;;;10.90;8.13;;;13.10;65.30;;;;;;4955229;28;20796;-72
2023/04/13 07:31:28;;;;;;;11.73;9.37;;;13.10;64.90;;;;;;4955814;28;20210;-74
2023/04/13 07:33:56;;;;;;;8.83;7.87;;;13.10;65.10;;;;;;4953170;28;20197;-71
2023/04/13 07:36:32;;;;;;;10.37;9.23;;;13.20;62.50;;;;;;4970593;28;20266;-70
2023/04/13 07:39:08;;;;;;;13.63;10.00;;;13.30;67.10;;;;;;4971436;28;20255;-74
2023/04/13 07:41:40;;;;;;;9.50;8.53;;;13.70;68.60;;;;;;4972151;28;20208;-73
2023/04/13 07:44:16;;;;;;;11.40;8.70;;;13.70;62.80;;;;;;4971835;28;20206;-70
2023/04/13 07:46:44;;;;;;;13.37;10.50;;;13.90;62.30;;;;;;4971832;28;20667;-74
2023/04/13 07:49:13;;;;;;;10.40;8.57;;;14.20;66.80;;;;;;4972945;28;20311;-74
2023/04/13 07:51:42;;;;;;;16.67;10.00;;;14.40;60.00;;;;;;4971364;28;20212;-74
2023/04/13 07:54:12;;;;;;;9.53;8.13;;;14.40;58.70;;;;;;4955579;28;20200;-73
2023/04/13 07:56:42;;;;;;;7.90;7.10;;;14.60;58.90;;;;;;4973024;28;20196;-74
2023/04/13 07:59:12;;;;;;;10.10;7.27;;;14.80;57.10;;;;;;4955484;28;20206;-72
2023/04/13 08:01:43;;;;;;;8.33;6.30;;;14.90;58.70;;;;;;4971377;28;20203;-75
2023/04/13 08:04:12;;;;;;;8.33;6.57;;;15.10;55.70;;;;;;4971603;28;20576;-75
2023/04/13 08:06:42;;;;;;;7.70;6.60;;;14.90;54.90;;;;;;4955685;28;20283;-74
2023/04/13 08:09:11;;;;;;;9.57;7.97;;;15.00;55.40;;;;;;4972127;28;20232;-73
2023/04/13 08:11:39;;;;;;;7.73;5.90;;;15.30;56.50;;;;;;4955286;28;20624;-69
2023/04/13 08:14:10;;;;;;;9.10;7.13;;;15.30;53.00;;;;;;4971235;28;20207;-67
2023/04/13 08:16:40;;;;;;;7.87;7.07;;;15.50;55.10;;;;;;4971181;28;20730;-67
2023/04/13 08:19:12;;;;;;;8.67;6.87;;;15.60;52.80;;;;;;4971198;28;20192;-67
2023/04/13 08:21:46;;;;;;;8.43;6.77;;;15.60;51.80;;;;;;4971083;28;20296;-67
2023/04/13 08:24:14;;;;;;;8.77;6.80;;;15.70;52.60;;;;;;4971061;28;20228;-66
2023/04/13 08:26:43;;;;;;;8.63;6.33;;;16.10;52.40;;;;;;4972266;28;20205;-68
2023/04/13 08:29:12;;;;;;;6.83;6.10;;;16.10;49.90;;;;;;4971145;28;20225;-67
2023/04/13 08:31:41;;;;;;;7.10;6.27;;;16.10;50.80;;;;;;4972337;28;20286;-67
2023/04/13 08:34:12;;;;;;;9.57;6.33;;;15.90;49.80;;;;;;4974506;28;20291;-67
2023/04/13 08:36:41;;;;;;;8.03;6.60;;;16.20;51.10;;;;;;4974381;28;20237;-70
2023/04/13 08:39:10;;;;;;;9.33;6.17;;;16.50;50.80;;;;;;4974308;28;20252;-78
2023/04/13 08:41:45;;;;;;;7.40;6.10;;;16.60;50.40;;;;;;4974371;28;20569;-73
2023/04/13 08:44:16;;;;;;;9.53;6.13;;;16.90;49.70;;;;;;4974380;28;20205;-66
2023/04/13 08:46:47;;;;;;;8.43;5.87;;;17.00;48.80;;;;;;4974158;28;20203;-79
2023/04/13 08:49:26;;;;;;;7.77;6.80;;;17.20;49.00;;;;;;4974203;28;20643;-70
2023/04/13 08:52:11;;;;;;;7.63;5.60;;;17.50;50.10;;;;;;4974154;28;20206;-67
2023/04/13 08:54:43;;;;;;;6.27;5.17;;;17.60;47.80;;;;;;4974116;28;20208;-67
2023/04/13 08:57:19;;;;;;;6.23;5.13;;;17.40;45.40;;;;;;4974176;28;20543;-67
2023/04/13 08:59:51;;;;;;;6.27;5.13;;;17.30;45.70;;;;;;4974089;28;20203;-67
2023/04/13 09:02:24;;;;;;;7.40;6.10;;;17.30;45.90;;;;;;4974087;28;20805;-72
2023/04/13 09:05:02;;;;;;;8.43;6.13;;;17.20;46.50;;;;;;4973868;28;20211;-67
2023/04/13 09:07:35;;;;;;;8.70;5.90;;;17.20;46.40;;;;;;4973831;28;20238;-67
2023/04/13 09:10:11;;;;;;;9.30;6.13;;;17.40;46.60;;;;;;4973805;28;20312;-67
2023/04/13 09:12:41;;;;;;;8.03;6.00;;;17.60;47.00;;;;;;4975264;28;20209;-69
2023/04/13 09:15:13;;;;;;;6.83;5.43;;;17.90;46.60;;;;;;4975001;28;20197;-68
2023/04/13 09:17:55;;;;;;;7.07;6.27;;;18.10;46.20;;;;;;4973698;28;20198;-68
2023/04/13 09:20:24;;;;;;;9.97;8.43;;;18.40;46.10;;;;;;4973604;28;20684;-68
2023/04/13 09:22:53;;;;;;;7.47;6.63;;;18.90;47.30;;;;;;4974852;28;20204;-77
2023/04/13 09:25:23;;;;;;;7.13;6.00;;;19.30;45.30;;;;;;4974613;28;20619;-84
2023/04/13 09:27:52;;;;;;;7.30;5.67;;;19.60;45.50;;;;;;4974682;28;20200;-85
2023/04/13 09:30:22;;;;;;;8.33;5.07;;;19.70;44.10;;;;;;4974808;28;20252;-72
2023/04/13 09:33:03;;;;;;;7.07;5.70;;;19.50;42.60;;;;;;4973534;28;20344;-75
2023/04/13 09:35:34;;;;;;;7.90;6.93;;;19.40;44.00;;;;;;4974662;28;20280;-65
2023/04/13 09:38:03;;;;;;;17.30;13.60;;;19.80;45.30;;;;;;4974892;28;20203;-76
2023/04/13 09:40:36;;;;;;;13.37;9.77;;;20.10;43.60;;;;;;4974706;28;20276;-77
2023/04/13 09:43:06;;;;;;;12.60;9.57;;;19.90;42.80;;;;;;4974170;28;20219;-78
2023/04/13 09:45:36;;;;;;;8.97;7.20;;;19.80;42.70;;;;;;4974495;28;20198;-77
2023/04/13 09:48:06;;;;;;;8.27;6.83;;;19.60;43.00;;;;;;4974468;28;20232;-76
2023/04/13 09:50:37;;;;;;;10.33;9.00;;;19.70;43.10;;;;;;4974374;28;20228;-80
2023/04/13 09:53:09;;;;;;;9.30;7.27;;;20.00;45.00;;;;;;4974408;28;20671;-82
2023/04/13 09:55:39;;;;;;;10.60;7.13;;;20.70;44.80;;;;;;4974619;28;20203;-76
2023/04/13 09:58:14;;;;;;;8.07;7.20;;;20.90;42.30;;;;;;4974371;28;20368;-75
2023/04/13 10:00:45;;;;;;;11.57;8.80;;;21.30;42.30;;;;;;4974455;28;20618;-76
2023/04/13 10:03:15;;;;;;;11.83;8.87;;;21.60;44.20;;;;;;4974070;28;20198;-76
2023/04/13 10:05:46;;;;;;;13.77;9.03;;;21.90;41.80;;;;;;4974212;28;20650;-77
2023/04/13 10:08:26;;;;;;;12.30;7.70;;;21.80;42.20;;;;;;4973729;28;20650;-78
2023/04/13 10:11:10;;;;;;;9.17;8.20;;;21.70;41.00;;;;;;4973587;28;20259;-82
2023/04/13 10:13:49;;;;;;;8.60;7.63;;;21.30;40.60;;;;;;4973962;28;20726;-82
2023/04/13 10:16:56;;;;;;;9.30;8.27;;;20.90;41.40;;;;;;4973818;28;20297;-77
2023/04/13 10:19:29;;;;;;;8.07;6.97;;;21.20;42.80;;;;;;4914048;29;20301;-78
2023/04/13 10:22:00;;;;;;;12.30;7.43;;;21.40;41.00;;;;;;4914271;29;20223;-76
2023/04/13 10:24:28;;;;;;;8.77;7.43;;;21.20;41.50;;;;;;4913882;29;20289;-78
2023/04/13 10:27:00;;;;;;;8.57;6.37;;;21.60;42.70;;;;;;4914139;29;20203;-78
2023/04/13 10:29:29;;;;;;;8.43;6.57;;;22.10;42.20;;;;;;4913903;29;20233;-80
2023/04/13 10:32:01;;;;;;;8.67;6.80;;;22.40;41.50;;;;;;4914075;29;20630;-79
2023/04/13 10:34:33;;;;;;;8.50;6.97;;;22.90;42.30;;;;;;4914003;29;20775;-81
2023/04/13 10:37:05;;;;;;;9.40;7.23;;;23.00;39.70;;;;;;4913682;29;20217;-81
2023/04/13 10:39:34;;;;;;;8.50;6.80;;;23.20;40.20;;;;;;4898107;29;20248;-78
2023/04/13 10:42:04;;;;;;;17.27;11.60;;;23.80;43.20;;;;;;4913851;29;20218;-80
2023/04/13 10:44:44;;;;;;;10.97;8.17;;;24.50;41.70;;;;;;4914039;29;20202;-79
2023/04/13 10:47:14;;;;;;;7.27;6.20;;;24.00;36.30;;;;;;4913779;29;20234;-79
2023/04/13 10:49:44;;;;;;;9.27;6.77;;;23.80;35.70;;;;;;4913703;29;20218;-81
2023/04/13 10:52:15;;;;;;;27.20;18.97;;;23.70;36.50;;;;;;4913806;29;20727;-72
2023/04/13 10:54:46;;;;;;;9.57;7.40;;;23.90;37.90;;;;;;4912898;29;20204;-76
2023/04/13 10:57:15;;;;;;;16.20;12.47;;;23.70;38.00;;;;;;4971469;28;20228;-74
2023/04/13 10:59:48;;;;;;;21.30;13.40;;;24.20;39.10;;;;;;4973160;28;20202;-72
2023/04/13 11:02:30;;;;;;;14.63;11.17;;;24.70;38.40;;;;;;4973300;28;20588;-78
2023/04/13 11:04:59;;;;;;;7.57;6.30;;;25.50;38.40;;;;;;4972929;28;20207;-79
2023/04/13 11:07:30;;;;;;;7.20;5.70;;;26.00;38.00;;;;;;4972893;28;20235;-82
2023/04/13 11:09:59;;;;;;;7.70;6.23;;;26.30;36.70;;;;;;4972979;28;20219;-80
2023/04/13 11:12:31;;;;;;;8.93;5.60;;;26.20;34.40;;;;;;4973170;28;20282;-82
2023/04/13 11:15:00;;;;;;;7.87;5.57;;;25.30;33.80;;;;;;4973032;28;20235;-82
2023/04/13 11:17:28;;;;;;;8.33;6.47;;;25.00;34.30;;;;;;4971863;28;20595;-76
2023/04/13 11:19:58;;;;;;;7.73;6.93;;;25.30;35.30;;;;;;4973066;28;20688;-84
2023/04/13 11:22:27;;;;;;;8.43;6.23;;;25.50;35.30;;;;;;4972781;28;20219;-77
2023/04/13 11:25:08;;;;;;;7.03;6.03;;;25.70;34.30;;;;;;4973037;28;20218;-79
2023/04/13 11:27:37;;;;;;;6.80;5.80;;;25.10;34.40;;;;;;4972992;28;20606;-74
2023/04/13 11:30:08;;;;;;;23.77;18.17;;;24.70;35.90;;;;;;4972856;28;20223;-76
2023/04/13 11:32:42;;;;;;;16.63;14.33;;;25.30;38.30;;;;;;4972761;28;20207;-75
2023/04/13 11:35:13;;;;;;;11.27;8.77;;;26.00;39.00;;;;;;4972741;28;20295;-76
2023/04/13 11:37:44;;;;;;;13.20;10.73;;;26.60;38.10;;;;;;4972675;28;20204;-69
2023/04/13 11:40:16;;;;;;;7.63;5.60;;;26.20;37.60;;;;;;4972702;28;20291;-72
2023/04/13 11:42:46;;;;;;;19.40;13.33;;;26.20;35.30;;;;;;4972765;28;20255;-74
2023/04/13 11:45:16;;;;;;;20.57;13.67;;;26.50;36.70;;;;;;4972671;28;20299;-75
2023/04/13 11:47:48;;;;;;;16.33;13.13;;;26.70;36.20;;;;;;4972563;28;20659;-79
2023/04/13 11:50:17;;;;;;;15.53;13.30;;;26.40;37.20;;;;;;4972489;28;20687;-77
2023/04/13 11:52:46;;;;;;;18.43;13.40;;;26.40;37.10;;;;;;4972619;28;20207;-69
2023/04/13 11:55:17;;;;;;;17.27;13.43;;;26.60;37.60;;;;;;4972484;28;20251;-72
2023/04/13 11:57:51;;;;;;;17.60;13.60;;;26.40;36.70;;;;;;4972683;28;20207;-73
2023/04/13 12:00:24;;;;;;;17.87;13.63;;;26.50;37.20;;;;;;4972475;28;20197;-78
2023/04/13 12:02:56;;;;;;;16.60;14.83;;;26.70;38.00;;;;;;4972432;28;20276;-74
2023/04/13 12:05:28;;;;;;;14.93;13.43;;;26.90;38.10;;;;;;4973579;28;20668;-84
2023/04/13 12:07:58;;;;;;;16.60;14.80;;;26.90;37.20;;;;;;4958664;28;20243;-78
2023/04/13 12:10:31;;;;;;;18.20;14.30;;;26.60;36.80;;;;;;4975993;28;20237;-79
2023/04/13 12:13:09;;;;;;;22.67;14.87;;;26.40;36.90;;;;;;4976193;28;20576;-79
2023/04/13 12:15:46;;;;;;;20.60;15.80;;;26.10;36.80;;;;;;4976077;28;20285;-80
2023/04/13 12:18:39;;;;;;;18.50;15.87;;;25.70;37.10;;;;;;4975984;28;20204;-77
2023/04/13 12:21:14;;;;;;;18.50;14.60;;;25.40;38.10;;;;;;4976043;28;20208;-78
2023/04/13 12:23:52;;;;;;;18.47;14.00;;;25.90;40.10;;;;;;4976020;28;20315;-70
2023/04/13 12:26:24;;;;;;;18.60;14.67;;;26.20;38.00;;;;;;4975910;28;20200;-87
2023/04/13 12:29:13;;;;;;;17.20;14.87;;;25.90;37.10;;;;;;4975822;28;20722;-67
2023/04/13 12:31:44;;;;;;;21.70;13.53;;;25.80;37.60;;;;;;4975752;28;20224;-74
2023/04/13 12:34:12;;;;;;;18.10;14.50;;;25.70;37.70;;;;;;4979848;28;20251;-69
2023/04/13 12:36:41;;;;;;;17.77;14.00;;;25.70;38.00;;;;;;4974600;28;20621;-68
2023/04/13 12:39:10;;;;;;;25.40;15.10;;;25.70;37.90;;;;;;4976413;28;20284;-71
2023/04/13 12:41:39;;;;;;;19.27;15.23;;;25.70;37.70;;;;;;4976600;28;20251;-75
2023/04/13 12:44:09;;;;;;;14.60;13.10;;;25.30;37.80;;;;;;4976455;28;20287;-70
2023/04/13 12:46:38;;;;;;;16.47;14.50;;;25.30;38.90;;;;;;4975580;28;20214;-81
2023/04/13 12:49:06;;;;;;;18.03;14.60;;;25.20;37.90;;;;;;4975461;28;20200;-70
2023/04/13 12:51:35;;;;;;;17.47;15.03;;;24.80;37.60;;;;;;4975440;28;20319;-76
2023/04/13 12:54:07;;;;;;;23.70;16.40;;;24.60;38.60;;;;;;4975384;28;20255;-72
2023/04/13 12:56:36;;;;;;;26.27;18.53;;;24.40;39.50;;;;;;4975175;28;20212;-72
2023/04/13 12:59:06;;;;;;;17.93;15.20;;;24.40;39.70;;;;;;4974605;28;20200;-71